Time;durP1;ratioP1;P1;durP2;ratioP2;P2;SDS_P1;SDS_P2;PMS_P1;PMS_P2;Temp;Humidity;BMP_temperature;BMP_pressure;BME280_temperature;BME280_humidity;BME280_pressure;Samples;Min_cycle;Max_cycle;Signal;HPM_P1;HPM_P2
2022/10/31 00:00:51;;;;;;;27.67;14.80;;;;;;;;;;5114781;27;20131;-78
2022/10/31 00:03:17;;;;;;;33.28;14.93;;;;;;;;;;5102776;28;20039;-79
2022/10/31 00:05:44;;;;;;;30.10;14.30;;;;;;;;;;5106405;27;20053;-79
2022/10/31 00:08:10;;;;;;;28.52;13.98;;;;;;;;;;5115007;27;20035;-79
2022/10/31 00:10:40;;;;;;;31.45;13.40;;;;;;;;;;5114495;27;20126;-78
2022/10/31 00:13:06;;;;;;;30.33;13.73;;;;;;;;;;5097824;27;20073;-78
2022/10/31 00:15:34;;;;;;;27.92;14.10;;;;;;;;;;5104714;27;20042;-79
2022/10/31 00:18:00;;;;;;;28.55;14.18;;;;;;;;;;5106336;27;20040;-78
2022/10/31 00:20:26;;;;;;;29.00;13.60;;;;;;;;;;5081023;27;20073;-70
2022/10/31 00:22:52;;;;;;;30.50;13.73;;;;;;;;;;5114733;27;20046;-78
2022/10/31 00:25:20;;;;;;;27.58;13.32;;;;;;;;;;5097801;27;20491;-78
2022/10/31 00:27:46;;;;;;;26.45;12.45;;;;;;;;;;5133001;27;20073;-79
2022/10/31 00:30:12;;;;;;;26.23;13.32;;;;;;;;;;5133251;28;20095;-79
2022/10/31 00:32:38;;;;;;;26.50;12.77;;;;;;;;;;5114506;28;20043;-79
2022/10/31 00:35:05;;;;;;;27.58;12.48;;;;;;;;;;5081200;28;20094;-78
2022/10/31 00:37:31;;;;;;;27.23;13.27;;;;;;;;;;5127876;27;20050;-78
2022/10/31 00:39:57;;;;;;;24.33;13.23;;;;;;;;;;5102894;28;20039;-78
2022/10/31 00:42:23;;;;;;;26.00;13.90;;;;;;;;;;5111704;28;20051;-78
2022/10/31 00:44:49;;;;;;;28.92;14.57;;;;;;;;;;5112319;28;20049;-78
2022/10/31 00:47:15;;;;;;;31.05;14.60;;;;;;;;;;5123280;27;20041;-79
2022/10/31 00:49:41;;;;;;;30.63;15.30;;;;;;;;;;5130918;27;20042;-71
2022/10/31 00:52:07;;;;;;;31.45;15.07;;;;;;;;;;5132899;28;20035;-70
2022/10/31 00:54:33;;;;;;;30.58;15.52;;;;;;;;;;5132640;28;20128;-70
2022/10/31 00:56:59;;;;;;;25.63;14.07;;;;;;;;;;5115260;27;20047;-70
2022/10/31 00:59:25;;;;;;;32.05;15.25;;;;;;;;;;5098641;28;20552;-70
2022/10/31 01:01:51;;;;;;;27.60;14.85;;;;;;;;;;5114534;28;20373;-70
2022/10/31 01:04:17;;;;;;;31.00;15.63;;;;;;;;;;5114830;28;20035;-79
2022/10/31 01:06:43;;;;;;;27.77;14.38;;;;;;;;;;5114191;28;20134;-79
2022/10/31 01:09:10;;;;;;;28.77;15.13;;;;;;;;;;5128232;27;20043;-79
2022/10/31 01:11:36;;;;;;;27.95;15.00;;;;;;;;;;5107531;28;20043;-79
2022/10/31 01:14:02;;;;;;;29.75;14.48;;;;;;;;;;5114191;28;20516;-70
2022/10/31 01:16:29;;;;;;;29.13;15.50;;;;;;;;;;5108651;28;20096;-70
2022/10/31 01:18:55;;;;;;;26.85;14.77;;;;;;;;;;5109984;27;20043;-70
2022/10/31 01:21:27;;;;;;;27.45;15.57;;;;;;;;;;5116971;27;20051;-70
2022/10/31 01:23:53;;;;;;;28.60;15.60;;;;;;;;;;5117754;27;20046;-71
2022/10/31 01:26:21;;;;;;;28.90;14.65;;;;;;;;;;5103434;27;20043;-70
2022/10/31 01:28:57;;;;;;;26.90;14.45;;;;;;;;;;5137140;27;20035;-78
2022/10/31 01:31:25;;;;;;;32.00;15.38;;;;;;;;;;5109020;27;20099;-78
2022/10/31 01:33:51;;;;;;;30.80;15.15;;;;;;;;;;5117652;27;20074;-78
2022/10/31 01:36:19;;;;;;;26.80;14.65;;;;;;;;;;5100747;27;20089;-71
2022/10/31 01:38:46;;;;;;;30.55;15.35;;;;;;;;;;5117196;27;20071;-71
2022/10/31 01:41:13;;;;;;;27.35;14.00;;;;;;;;;;5108849;27;20056;-71
2022/10/31 01:43:47;;;;;;;30.25;15.02;;;;;;;;;;5124045;27;20451;-71
2022/10/31 01:46:14;;;;;;;27.23;14.13;;;;;;;;;;5117715;27;20039;-79
2022/10/31 01:48:41;;;;;;;28.30;15.82;;;;;;;;;;5117495;27;20077;-79
2022/10/31 01:51:08;;;;;;;25.83;14.50;;;;;;;;;;5120724;27;20488;-78
2022/10/31 01:53:36;;;;;;;28.95;15.65;;;;;;;;;;5125995;27;20039;-78
2022/10/31 01:56:02;;;;;;;28.30;14.20;;;;;;;;;;5100055;27;20069;-79
2022/10/31 01:58:31;;;;;;;25.02;14.60;;;;;;;;;;5117602;27;20038;-79
2022/10/31 02:00:59;;;;;;;29.70;15.38;;;;;;;;;;5111308;27;20043;-71
2022/10/31 02:03:25;;;;;;;27.90;15.95;;;;;;;;;;5101483;27;20043;-71
2022/10/31 02:05:53;;;;;;;29.83;15.52;;;;;;;;;;5117087;27;20046;-70
2022/10/31 02:08:38;;;;;;;31.52;15.15;;;;;;;;;;5117586;27;20082;-79
2022/10/31 02:11:04;;;;;;;25.08;14.10;;;;;;;;;;5121795;27;20456;-79
2022/10/31 02:13:30;;;;;;;25.70;15.50;;;;;;;;;;5110232;28;20499;-79
2022/10/31 02:15:58;;;;;;;30.75;15.60;;;;;;;;;;5109971;27;20487;-79
2022/10/31 02:18:25;;;;;;;27.33;15.15;;;;;;;;;;5120923;27;20031;-79
2022/10/31 02:21:10;;;;;;;29.55;15.07;;;;;;;;;;5144384;27;20115;-79
2022/10/31 02:23:36;;;;;;;25.25;14.80;;;;;;;;;;5131080;27;20034;-71
2022/10/31 02:26:09;;;;;;;32.03;15.82;;;;;;;;;;5127329;27;20490;-78
2022/10/31 02:28:54;;;;;;;28.48;15.45;;;;;;;;;;5106930;27;20503;-78
2022/10/31 02:31:30;;;;;;;24.77;14.93;;;;;;;;;;5104244;28;20047;-79
2022/10/31 02:34:01;;;;;;;28.42;16.00;;;;;;;;;;5113105;27;20040;-78
2022/10/31 02:36:39;;;;;;;29.48;15.95;;;;;;;;;;5120910;27;20475;-78
2022/10/31 02:39:24;;;;;;;23.92;13.43;;;;;;;;;;5116599;27;20479;-78
2022/10/31 02:41:58;;;;;;;32.25;16.13;;;;;;;;;;5116340;27;20046;-79
2022/10/31 02:44:45;;;;;;;29.13;15.15;;;;;;;;;;5109763;27;20059;-78
2022/10/31 02:47:27;;;;;;;32.40;16.80;;;;;;;;;;5100594;27;20046;-78
2022/10/31 02:50:08;;;;;;;33.42;17.08;;;;;;;;;;5116140;27;20403;-78
2022/10/31 02:52:35;;;;;;;27.45;16.45;;;;;;;;;;5111549;27;20044;-78
2022/10/31 02:55:34;;;;;;;23.85;14.07;;;;;;;;;;5127694;27;20046;-78
2022/10/31 02:58:06;;;;;;;29.38;15.75;;;;;;;;;;5051625;27;20043;-78
2022/10/31 03:00:38;;;;;;;32.40;15.20;;;;;;;;;;5115462;27;20118;-78
2022/10/31 03:03:23;;;;;;;34.50;17.55;;;;;;;;;;5110421;27;20046;-79
2022/10/31 03:05:56;;;;;;;34.60;17.58;;;;;;;;;;5129695;27;20114;-78
2022/10/31 03:08:30;;;;;;;35.40;18.83;;;;;;;;;;5120153;27;20067;-79
2022/10/31 03:10:58;;;;;;;31.15;17.63;;;;;;;;;;5115587;27;20039;-79
2022/10/31 03:13:24;;;;;;;28.63;17.20;;;;;;;;;;5143348;27;20499;-78
2022/10/31 03:15:51;;;;;;;36.45;18.60;;;;;;;;;;5138140;27;20085;-78
2022/10/31 03:18:21;;;;;;;31.38;17.65;;;;;;;;;;5106103;27;20403;-79
2022/10/31 03:21:03;;;;;;;36.00;18.30;;;;;;;;;;5120588;27;20091;-79
2022/10/31 03:23:31;;;;;;;39.45;18.70;;;;;;;;;;5103285;27;20074;-78
2022/10/31 03:25:57;;;;;;;35.67;18.92;;;;;;;;;;5115314;27;20053;-79
2022/10/31 03:28:26;;;;;;;37.40;19.27;;;;;;;;;;5132390;27;20038;-78
2022/10/31 03:30:53;;;;;;;29.45;16.92;;;;;;;;;;5115773;27;20043;-78
2022/10/31 03:33:22;;;;;;;33.85;19.50;;;;;;;;;;5134036;27;20042;-78
2022/10/31 03:35:51;;;;;;;37.25;19.67;;;;;;;;;;5116175;27;20031;-78
2022/10/31 03:38:18;;;;;;;37.70;20.77;;;;;;;;;;5098625;27;20496;-70
2022/10/31 03:40:46;;;;;;;41.70;22.05;;;;;;;;;;5141037;27;20116;-70
2022/10/31 03:43:15;;;;;;;41.28;21.85;;;;;;;;;;5107554;27;20057;-70
2022/10/31 03:45:44;;;;;;;41.17;21.85;;;;;;;;;;5115121;27;20092;-70
2022/10/31 03:48:10;;;;;;;37.00;18.95;;;;;;;;;;5114784;27;20050;-70
2022/10/31 03:50:59;;;;;;;32.58;17.60;;;;;;;;;;5099216;27;20038;-70
2022/10/31 03:53:28;;;;;;;41.88;21.00;;;;;;;;;;5115394;27;20047;-70
2022/10/31 03:55:59;;;;;;;35.97;18.70;;;;;;;;;;5116125;27;20047;-70
2022/10/31 03:58:32;;;;;;;33.58;18.90;;;;;;;;;;5115168;27;20035;-70
2022/10/31 04:01:00;;;;;;;41.40;20.50;;;;;;;;;;5115711;27;20111;-70
2022/10/31 04:03:27;;;;;;;33.00;19.45;;;;;;;;;;5115151;27;20039;-70
2022/10/31 04:05:55;;;;;;;37.85;20.25;;;;;;;;;;5115941;27;20062;-70
2022/10/31 04:08:23;;;;;;;37.17;20.45;;;;;;;;;;5133938;27;20483;-70
2022/10/31 04:10:50;;;;;;;38.38;19.85;;;;;;;;;;5120256;27;20179;-70
2022/10/31 04:13:19;;;;;;;35.42;18.48;;;;;;;;;;5114860;27;20043;-70
2022/10/31 04:15:46;;;;;;;39.05;20.85;;;;;;;;;;5115750;27;20047;-70
2022/10/31 04:18:12;;;;;;;36.53;20.55;;;;;;;;;;5114839;27;20041;-78
2022/10/31 04:20:39;;;;;;;39.35;20.35;;;;;;;;;;5115906;27;20039;-78
2022/10/31 04:23:08;;;;;;;35.80;20.25;;;;;;;;;;5114786;27;20447;-78
2022/10/31 04:25:35;;;;;;;43.00;22.52;;;;;;;;;;5114869;28;20050;-71
2022/10/31 04:28:01;;;;;;;43.65;21.85;;;;;;;;;;5106334;28;20039;-70
2022/10/31 04:30:27;;;;;;;46.15;23.42;;;;;;;;;;5114377;28;20075;-70
2022/10/31 04:32:53;;;;;;;40.38;20.92;;;;;;;;;;5115850;28;20083;-71
2022/10/31 04:35:19;;;;;;;41.78;19.27;;;;;;;;;;5114176;28;20070;-70
2022/10/31 04:37:45;;;;;;;42.30;22.23;;;;;;;;;;5121780;27;20044;-70
2022/10/31 04:40:11;;;;;;;45.33;23.38;;;;;;;;;;5114715;28;20492;-78
2022/10/31 04:42:37;;;;;;;43.75;22.25;;;;;;;;;;5134285;27;20043;-78
2022/10/31 04:45:03;;;;;;;50.42;23.95;;;;;;;;;;5114144;28;20043;-78
2022/10/31 04:47:31;;;;;;;28.95;18.48;;;;;;;;;;5115374;27;20042;-70
2022/10/31 04:49:57;;;;;;;37.47;21.40;;;;;;;;;;5114629;27;20043;-70
2022/10/31 04:52:23;;;;;;;49.08;23.55;;;;;;;;;;5137644;27;20037;-70
2022/10/31 04:54:49;;;;;;;49.35;24.50;;;;;;;;;;5085011;27;20046;-70
2022/10/31 04:57:15;;;;;;;47.72;23.75;;;;;;;;;;5118344;27;20051;-78
2022/10/31 04:59:41;;;;;;;53.17;25.40;;;;;;;;;;5120052;27;20126;-78
2022/10/31 05:02:07;;;;;;;41.90;22.23;;;;;;;;;;5117526;27;20096;-78
2022/10/31 05:04:33;;;;;;;53.65;25.58;;;;;;;;;;5137965;27;20035;-78
2022/10/31 05:06:59;;;;;;;54.10;26.45;;;;;;;;;;5105861;28;20039;-78
2022/10/31 05:09:25;;;;;;;48.42;24.92;;;;;;;;;;5100266;27;20115;-78
2022/10/31 05:11:51;;;;;;;54.88;24.35;;;;;;;;;;5101334;27;20089;-79
2022/10/31 05:14:17;;;;;;;52.20;26.23;;;;;;;;;;5118965;27;20407;-78
2022/10/31 05:16:43;;;;;;;56.40;26.50;;;;;;;;;;5136981;27;20035;-79
2022/10/31 05:19:10;;;;;;;57.60;26.88;;;;;;;;;;5102092;27;20535;-70
2022/10/31 05:21:36;;;;;;;61.58;29.00;;;;;;;;;;5136707;27;20079;-70
2022/10/31 05:24:02;;;;;;;61.80;28.95;;;;;;;;;;5120669;27;20036;-78
2022/10/31 05:26:28;;;;;;;59.10;27.60;;;;;;;;;;5120679;27;20039;-78
2022/10/31 05:28:54;;;;;;;57.00;26.65;;;;;;;;;;5117709;27;20035;-78
2022/10/31 05:31:20;;;;;;;57.60;27.92;;;;;;;;;;5117548;27;20039;-78
2022/10/31 05:33:46;;;;;;;55.05;25.88;;;;;;;;;;5118202;27;20464;-78
2022/10/31 05:36:12;;;;;;;56.47;27.08;;;;;;;;;;5143729;27;20198;-70
2022/10/31 05:38:38;;;;;;;56.63;27.20;;;;;;;;;;5117778;27;20039;-70
2022/10/31 05:41:04;;;;;;;58.70;27.17;;;;;;;;;;5136463;27;20119;-70
2022/10/31 05:43:30;;;;;;;47.88;24.40;;;;;;;;;;5117181;27;20043;-70
2022/10/31 05:45:57;;;;;;;51.08;24.35;;;;;;;;;;5118574;27;20039;-70
2022/10/31 05:48:23;;;;;;;49.60;24.77;;;;;;;;;;5136959;27;20042;-70
2022/10/31 05:50:49;;;;;;;40.03;22.08;;;;;;;;;;5100592;27;20039;-70
2022/10/31 05:53:16;;;;;;;44.17;23.45;;;;;;;;;;5117190;27;20046;-70
2022/10/31 05:55:43;;;;;;;40.58;22.08;;;;;;;;;;5137894;27;20118;-70
2022/10/31 05:58:09;;;;;;;49.42;23.95;;;;;;;;;;5126481;27;20035;-70
2022/10/31 06:00:35;;;;;;;53.85;26.67;;;;;;;;;;5116987;27;20092;-78
2022/10/31 06:03:03;;;;;;;51.95;23.67;;;;;;;;;;5117136;27;20122;-78
2022/10/31 06:05:29;;;;;;;53.75;26.13;;;;;;;;;;5117083;27;20091;-70
2022/10/31 06:07:55;;;;;;;47.97;24.42;;;;;;;;;;5119798;27;20037;-78
2022/10/31 06:10:21;;;;;;;53.00;25.00;;;;;;;;;;5116675;27;20518;-78
2022/10/31 06:12:48;;;;;;;58.90;27.45;;;;;;;;;;5113711;28;20032;-70
2022/10/31 06:15:14;;;;;;;59.17;26.88;;;;;;;;;;5106317;27;20449;-70
2022/10/31 06:17:40;;;;;;;55.65;26.20;;;;;;;;;;5117579;27;20070;-78
2022/10/31 06:20:07;;;;;;;60.53;26.00;;;;;;;;;;5110076;27;20525;-70
2022/10/31 06:22:33;;;;;;;53.65;23.92;;;;;;;;;;5134981;27;20035;-79
2022/10/31 06:24:59;;;;;;;59.38;25.83;;;;;;;;;;5100500;27;20034;-70
2022/10/31 06:27:25;;;;;;;48.08;23.02;;;;;;;;;;5115928;27;20043;-71
2022/10/31 06:29:51;;;;;;;36.03;19.70;;;;;;;;;;5127505;27;20057;-71
2022/10/31 06:32:18;;;;;;;47.47;23.15;;;;;;;;;;5099607;27;20483;-70
2022/10/31 06:34:44;;;;;;;54.70;25.38;;;;;;;;;;5116587;27;20044;-70
2022/10/31 06:37:13;;;;;;;60.47;26.02;;;;;;;;;;5118910;27;20152;-78
2022/10/31 06:39:39;;;;;;;53.38;25.55;;;;;;;;;;5117825;27;20043;-78
2022/10/31 06:42:06;;;;;;;53.28;25.55;;;;;;;;;;5103767;27;20039;-78
2022/10/31 06:44:32;;;;;;;55.10;25.17;;;;;;;;;;5107756;28;20096;-78
2022/10/31 06:46:58;;;;;;;53.75;24.50;;;;;;;;;;5096648;28;20114;-78
2022/10/31 06:49:24;;;;;;;53.92;24.33;;;;;;;;;;5107424;28;20051;-78
2022/10/31 06:51:50;;;;;;;50.08;24.48;;;;;;;;;;5111078;27;20500;-78
2022/10/31 06:54:17;;;;;;;48.63;23.30;;;;;;;;;;5114924;27;20067;-80
2022/10/31 06:56:43;;;;;;;55.97;24.98;;;;;;;;;;5118859;27;20110;-71
2022/10/31 06:59:09;;;;;;;51.25;23.05;;;;;;;;;;5086445;28;20048;-70
2022/10/31 07:01:35;;;;;;;46.10;22.23;;;;;;;;;;5102326;27;20568;-71
2022/10/31 07:04:01;;;;;;;48.50;22.65;;;;;;;;;;5078798;28;20407;-71
2022/10/31 07:06:27;;;;;;;40.63;20.88;;;;;;;;;;5114030;27;20399;-70
2022/10/31 07:08:53;;;;;;;44.33;21.77;;;;;;;;;;5097092;28;20069;-70
2022/10/31 07:11:19;;;;;;;46.85;21.83;;;;;;;;;;5095275;28;20400;-70
2022/10/31 07:13:46;;;;;;;46.65;21.80;;;;;;;;;;5109506;27;20467;-70
2022/10/31 07:16:13;;;;;;;44.25;21.77;;;;;;;;;;5093917;27;20035;-70
2022/10/31 07:18:39;;;;;;;48.47;22.48;;;;;;;;;;5126807;27;20035;-71
2022/10/31 07:21:05;;;;;;;41.45;20.65;;;;;;;;;;5093403;27;20121;-70
2022/10/31 07:23:31;;;;;;;36.13;21.17;;;;;;;;;;5102731;27;20048;-71
2022/10/31 07:25:58;;;;;;;42.22;22.08;;;;;;;;;;5094931;28;20044;-78
2022/10/31 07:28:24;;;;;;;42.85;22.55;;;;;;;;;;5126608;27;20035;-71
2022/10/31 07:30:51;;;;;;;36.95;20.67;;;;;;;;;;5106468;28;20050;-71
2022/10/31 07:33:17;;;;;;;35.15;21.15;;;;;;;;;;5084250;27;20042;-71
2022/10/31 07:35:43;;;;;;;34.35;19.95;;;;;;;;;;5115340;27;20046;-71
2022/10/31 07:38:10;;;;;;;33.33;19.85;;;;;;;;;;5109293;27;20036;-71
2022/10/31 07:40:36;;;;;;;27.50;15.50;;;;;;;;;;5119541;27;20421;-71
2022/10/31 07:43:02;;;;;;;25.45;16.58;;;;;;;;;;5102501;27;20127;-71
2022/10/31 07:45:28;;;;;;;23.75;14.88;;;;;;;;;;5081526;27;20053;-71
2022/10/31 07:47:54;;;;;;;25.67;15.90;;;;;;;;;;5115522;27;20395;-71
2022/10/31 07:50:27;;;;;;;20.00;14.35;;;;;;;;;;5134881;27;20043;-79
2022/10/31 07:53:11;;;;;;;22.15;14.73;;;;;;;;;;5115547;27;20403;-77
2022/10/31 07:55:37;;;;;;;17.02;12.57;;;;;;;;;;5115086;27;20035;-77
2022/10/31 07:58:08;;;;;;;18.00;12.68;;;;;;;;;;5106736;28;20035;-70
2022/10/31 08:00:34;;;;;;;19.73;12.95;;;;;;;;;;5112806;27;20047;-77
2022/10/31 08:03:02;;;;;;;18.35;11.73;;;;;;;;;;5128606;27;20072;-70
2022/10/31 08:05:28;;;;;;;16.98;10.93;;;;;;;;;;5115029;27;20039;-69
2022/10/31 08:07:54;;;;;;;15.48;10.77;;;;;;;;;;5114978;27;20042;-77
2022/10/31 08:10:20;;;;;;;17.35;11.02;;;;;;;;;;5099174;27;20051;-70
2022/10/31 08:12:46;;;;;;;14.80;10.88;;;;;;;;;;5115656;27;20487;-70
2022/10/31 08:15:12;;;;;;;13.27;10.13;;;;;;;;;;5098674;27;20501;-70
2022/10/31 08:17:39;;;;;;;14.35;10.10;;;;;;;;;;5118868;27;20126;-70
2022/10/31 08:20:06;;;;;;;13.95;10.32;;;;;;;;;;5106667;28;20039;-70
2022/10/31 08:22:32;;;;;;;14.98;10.25;;;;;;;;;;5130242;27;20039;-70
2022/10/31 08:24:58;;;;;;;13.88;9.80;;;;;;;;;;5114410;28;20031;-70
2022/10/31 08:27:24;;;;;;;15.00;9.98;;;;;;;;;;5130405;27;20184;-70
2022/10/31 08:29:50;;;;;;;14.77;10.13;;;;;;;;;;5113355;28;20035;-79
2022/10/31 08:32:16;;;;;;;15.93;9.60;;;;;;;;;;5100049;28;20480;-70
2022/10/31 08:34:42;;;;;;;12.75;9.30;;;;;;;;;;5093477;28;20557;-79
2022/10/31 08:37:08;;;;;;;13.55;9.27;;;;;;;;;;5093947;28;20373;-76
2022/10/31 08:39:34;;;;;;;12.35;9.25;;;;;;;;;;5093746;28;20043;-79
2022/10/31 08:42:00;;;;;;;13.77;9.60;;;;;;;;;;5103966;27;20492;-79
2022/10/31 08:44:26;;;;;;;14.30;8.93;;;;;;;;;;5122369;27;20525;-79
2022/10/31 08:46:52;;;;;;;13.98;9.05;;;;;;;;;;5123824;27;20035;-82
2022/10/31 08:49:18;;;;;;;13.50;9.30;;;;;;;;;;5110184;27;20070;-79
2022/10/31 08:51:47;;;;;;;14.20;9.10;;;;;;;;;;5091226;28;20550;-72
2022/10/31 08:54:13;;;;;;;14.88;9.25;;;;;;;;;;5099998;28;20035;-72
2022/10/31 08:56:39;;;;;;;11.32;8.68;;;;;;;;;;5087639;28;20042;-72
2022/10/31 08:59:06;;;;;;;13.80;9.55;;;;;;;;;;5110950;27;20400;-72
2022/10/31 09:01:32;;;;;;;14.02;9.90;;;;;;;;;;5103989;28;20035;-72
2022/10/31 09:03:58;;;;;;;15.35;9.57;;;;;;;;;;5095380;28;20128;-72
2022/10/31 09:06:24;;;;;;;13.43;10.75;;;;;;;;;;5098498;28;20075;-71
2022/10/31 09:08:50;;;;;;;15.45;11.40;;;;;;;;;;5085423;27;20377;-71
2022/10/31 09:11:16;;;;;;;17.30;10.88;;;;;;;;;;5101624;28;20408;-71
2022/10/31 09:13:42;;;;;;;16.17;11.60;;;;;;;;;;5104534;28;20096;-71
2022/10/31 09:16:08;;;;;;;14.77;11.55;;;;;;;;;;5122201;28;20047;-72
2022/10/31 09:18:34;;;;;;;18.80;13.45;;;;;;;;;;5101896;28;20391;-72
2022/10/31 09:21:01;;;;;;;22.75;14.70;;;;;;;;;;5099048;28;20518;-72
2022/10/31 09:23:27;;;;;;;22.30;15.15;;;;;;;;;;5113868;27;20078;-72
2022/10/31 09:25:54;;;;;;;21.48;15.93;;;;;;;;;;5094050;28;20092;-72
2022/10/31 09:28:22;;;;;;;22.67;15.77;;;;;;;;;;5118827;28;20127;-72
2022/10/31 09:30:48;;;;;;;24.95;17.20;;;;;;;;;;5112834;28;20064;-71
2022/10/31 09:33:15;;;;;;;22.52;17.15;;;;;;;;;;5134553;27;20035;-71
2022/10/31 09:35:41;;;;;;;24.13;15.52;;;;;;;;;;5096427;28;20089;-71
2022/10/31 09:38:12;;;;;;;23.42;17.23;;;;;;;;;;5096353;28;20057;-71
2022/10/31 09:40:39;;;;;;;27.17;17.33;;;;;;;;;;5106186;27;20081;-71
2022/10/31 09:43:24;;;;;;;25.55;18.08;;;;;;;;;;5100266;27;20075;-71
2022/10/31 09:45:50;;;;;;;23.30;16.65;;;;;;;;;;5098810;27;20051;-78
2022/10/31 09:48:31;;;;;;;21.15;15.50;;;;;;;;;;5096361;28;20122;-80
2022/10/31 09:51:09;;;;;;;27.17;18.23;;;;;;;;;;5106825;27;20510;-78
2022/10/31 09:53:58;;;;;;;24.25;16.55;;;;;;;;;;5099705;28;20036;-78
2022/10/31 09:56:25;;;;;;;24.27;16.10;;;;;;;;;;5104055;28;20509;-71
2022/10/31 09:58:55;;;;;;;22.20;16.13;;;;;;;;;;5107620;27;20035;-78
2022/10/31 10:01:38;;;;;;;22.13;16.20;;;;;;;;;;5109730;27;20047;-80
2022/10/31 10:04:18;;;;;;;21.38;15.65;;;;;;;;;;5096693;28;20040;-79
2022/10/31 10:06:47;;;;;;;21.75;15.73;;;;;;;;;;5080706;28;20130;-79
2022/10/31 10:09:13;;;;;;;21.48;16.63;;;;;;;;;;5096554;28;20100;-79
2022/10/31 10:11:56;;;;;;;20.08;14.43;;;;;;;;;;5114637;27;20118;-78
2022/10/31 10:14:34;;;;;;;24.70;15.75;;;;;;;;;;5115227;27;20511;-78
2022/10/31 10:17:04;;;;;;;23.05;15.18;;;;;;;;;;5103075;27;20403;-78
2022/10/31 10:19:35;;;;;;;20.10;15.48;;;;;;;;;;5090919;28;20403;-79
2022/10/31 10:22:04;;;;;;;22.40;15.75;;;;;;;;;;5106079;27;20437;-78
2022/10/31 10:24:39;;;;;;;23.50;16.00;;;;;;;;;;5100711;28;20252;-78
2022/10/31 10:27:12;;;;;;;25.05;16.15;;;;;;;;;;5108899;27;20046;-79
2022/10/31 10:29:41;;;;;;;21.58;16.05;;;;;;;;;;5117174;27;20096;-79
2022/10/31 10:32:12;;;;;;;24.20;16.15;;;;;;;;;;5121568;27;20121;-79
2022/10/31 10:34:42;;;;;;;23.08;15.68;;;;;;;;;;5120629;27;20451;-71
2022/10/31 10:37:21;;;;;;;25.02;16.23;;;;;;;;;;5116735;27;20031;-71
2022/10/31 10:39:50;;;;;;;21.50;15.48;;;;;;;;;;5104530;28;20092;-71
2022/10/31 10:48:08;;;;;;;22.58;15.05;;;;;;;;;;5115979;28;20555;-79
2022/10/31 10:50:42;;;;;;;20.88;15.02;;;;;;;;;;5117179;27;20116;-79
2022/10/31 10:53:31;;;;;;;25.27;14.88;;;;;;;;;;5117043;27;20448;-72
2022/10/31 10:56:03;;;;;;;21.58;13.82;;;;;;;;;;5117318;27;20035;-80
2022/10/31 10:58:29;;;;;;;22.35;14.40;;;;;;;;;;5104548;28;20040;-79
2022/10/31 11:00:55;;;;;;;22.40;14.20;;;;;;;;;;5108645;27;20096;-81
2022/10/31 11:03:21;;;;;;;26.13;14.95;;;;;;;;;;5109121;27;20038;-79
2022/10/31 11:05:56;;;;;;;22.00;14.13;;;;;;;;;;5121061;27;20040;-79
2022/10/31 11:08:25;;;;;;;25.40;14.93;;;;;;;;;;5120777;27;20138;-80
2022/10/31 11:11:05;;;;;;;23.30;15.18;;;;;;;;;;5120629;27;20107;-71
2022/10/31 11:13:32;;;;;;;18.42;13.10;;;;;;;;;;5101073;27;20046;-71
2022/10/31 11:16:09;;;;;;;20.85;13.32;;;;;;;;;;5119785;27;20043;-71
2022/10/31 11:18:38;;;;;;;21.80;13.98;;;;;;;;;;5116520;27;20043;-71
2022/10/31 11:21:05;;;;;;;21.92;14.27;;;;;;;;;;5114441;27;20067;-72
2022/10/31 11:23:32;;;;;;;20.40;14.45;;;;;;;;;;5111939;27;20055;-78
2022/10/31 11:26:00;;;;;;;21.10;13.68;;;;;;;;;;5102834;28;20039;-78
2022/10/31 11:28:29;;;;;;;20.25;13.18;;;;;;;;;;5102650;27;20043;-78
2022/10/31 11:30:55;;;;;;;18.05;12.50;;;;;;;;;;5115398;27;20047;-79
2022/10/31 11:33:34;;;;;;;20.33;12.63;;;;;;;;;;5123862;27;20039;-82
2022/10/31 11:36:01;;;;;;;20.80;12.30;;;;;;;;;;5125712;27;20037;-71
2022/10/31 11:38:40;;;;;;;20.17;12.13;;;;;;;;;;5129093;27;20137;-70
2022/10/31 11:41:29;;;;;;;17.42;11.48;;;;;;;;;;5115806;27;20049;-71
2022/10/31 11:44:03;;;;;;;19.48;12.15;;;;;;;;;;5104948;27;20265;-71
2022/10/31 11:46:39;;;;;;;17.02;10.93;;;;;;;;;;5114293;27;20118;-70
2022/10/31 11:49:06;;;;;;;19.67;11.38;;;;;;;;;;5097007;28;20039;-70
2022/10/31 11:51:34;;;;;;;18.27;12.00;;;;;;;;;;5095050;28;20036;-71
2022/10/31 11:54:04;;;;;;;18.95;10.77;;;;;;;;;;5117340;27;20483;-70
2022/10/31 11:56:40;;;;;;;15.57;10.35;;;;;;;;;;5113687;27;20499;-71
2022/10/31 11:59:16;;;;;;;16.13;10.90;;;;;;;;;;5093267;28;20062;-70
2022/10/31 12:01:46;;;;;;;16.25;11.13;;;;;;;;;;5094862;28;20043;-71
2022/10/31 12:04:13;;;;;;;14.52;10.70;;;;;;;;;;5094252;28;20052;-71
2022/10/31 12:06:40;;;;;;;17.50;11.50;;;;;;;;;;5099638;27;20046;-70
2022/10/31 12:09:22;;;;;;;16.58;11.38;;;;;;;;;;5099402;28;20492;-70
2022/10/31 12:11:48;;;;;;;15.80;10.77;;;;;;;;;;5094781;28;20040;-70
2022/10/31 12:14:26;;;;;;;20.42;10.85;;;;;;;;;;5095317;28;20131;-70
2022/10/31 12:17:14;;;;;;;15.25;10.15;;;;;;;;;;5093816;28;20046;-70
2022/10/31 12:19:53;;;;;;;17.45;9.93;;;;;;;;;;5099371;27;20095;-71
2022/10/31 12:22:37;;;;;;;16.48;9.63;;;;;;;;;;5109619;27;20450;-71
2022/10/31 12:25:09;;;;;;;15.98;9.77;;;;;;;;;;5111980;28;20035;-78
2022/10/31 12:27:36;;;;;;;14.20;8.15;;;;;;;;;;5123607;27;20039;-71
2022/10/31 12:30:02;;;;;;;16.60;8.70;;;;;;;;;;5097353;28;20047;-71
2022/10/31 12:32:31;;;;;;;13.45;7.63;;;;;;;;;;5114107;28;20039;-71
2022/10/31 12:35:16;;;;;;;15.45;7.60;;;;;;;;;;5097285;28;20043;-78
2022/10/31 12:37:57;;;;;;;16.02;7.75;;;;;;;;;;5102903;27;20039;-70
2022/10/31 12:40:30;;;;;;;16.65;7.75;;;;;;;;;;5117139;28;20086;-78
2022/10/31 12:43:02;;;;;;;11.35;6.80;;;;;;;;;;5097848;28;20035;-78
2022/10/31 12:45:40;;;;;;;12.90;6.35;;;;;;;;;;5114445;28;20054;-78
2022/10/31 12:48:21;;;;;;;11.75;6.43;;;;;;;;;;5125816;27;20042;-78
2022/10/31 12:51:22;;;;;;;12.40;6.55;;;;;;;;;;5120041;27;20046;-79
2022/10/31 12:53:48;;;;;;;15.30;7.18;;;;;;;;;;5013433;28;20046;-79
2022/10/31 12:56:15;;;;;;;13.93;7.05;;;;;;;;;;5103603;28;20087;-79
2022/10/31 12:58:45;;;;;;;15.27;6.75;;;;;;;;;;5118630;28;20051;-77
2022/10/31 13:01:14;;;;;;;12.55;6.70;;;;;;;;;;5127288;28;20039;-78
2022/10/31 13:03:49;;;;;;;11.38;6.13;;;;;;;;;;5114161;28;20043;-71
2022/10/31 13:06:18;;;;;;;13.27;6.78;;;;;;;;;;5114547;28;20087;-78
2022/10/31 13:08:48;;;;;;;11.55;6.38;;;;;;;;;;5116578;28;20031;-71
2022/10/31 13:11:18;;;;;;;12.38;7.07;;;;;;;;;;5114840;27;20051;-78
2022/10/31 13:14:03;;;;;;;13.82;6.60;;;;;;;;;;5117851;27;20041;-77
2022/10/31 13:16:37;;;;;;;12.27;7.13;;;;;;;;;;5118557;27;20050;-78
2022/10/31 13:19:10;;;;;;;13.65;7.05;;;;;;;;;;5120760;27;20391;-78
2022/10/31 13:21:55;;;;;;;12.55;7.28;;;;;;;;;;5125072;27;20035;-78
2022/10/31 13:24:24;;;;;;;13.07;7.97;;;;;;;;;;5118549;27;20047;-78
2022/10/31 13:26:54;;;;;;;14.82;8.52;;;;;;;;;;5117013;27;20046;-71
2022/10/31 13:29:34;;;;;;;12.98;8.30;;;;;;;;;;5118685;27;20039;-71
2022/10/31 13:32:01;;;;;;;13.05;7.88;;;;;;;;;;5103673;28;20114;-70
2022/10/31 13:34:47;;;;;;;12.82;7.57;;;;;;;;;;5103640;28;20039;-79
2022/10/31 13:37:13;;;;;;;;;;;;;;;;;;5097653;28;20039;-70
2022/10/31 13:39:51;;;;;;;15.40;7.40;;;;;;;;;;5102423;27;19975;-79
2022/10/31 13:42:24;;;;;;;14.23;7.80;;;;;;;;;;5099269;27;20049;-80
2022/10/31 13:44:50;;;;;;;16.27;8.05;;;;;;;;;;5098724;28;20101;-79
2022/10/31 13:47:43;;;;;;;14.18;8.07;;;;;;;;;;5111848;27;20043;-78
2022/10/31 13:50:35;;;;;;;11.57;7.75;;;;;;;;;;5110421;27;20055;-80
2022/10/31 13:53:27;;;;;;;11.35;6.38;;;;;;;;;;5094951;27;20043;-70
2022/10/31 13:56:23;;;;;;;11.63;6.25;;;;;;;;;;5059931;28;20062;-79
2022/10/31 13:59:19;;;;;;;12.15;5.72;;;;;;;;;;5100793;27;20388;-70
2022/10/31 14:01:50;;;;;;;11.50;7.00;;;;;;;;;;5093649;28;20488;-70
2022/10/31 14:04:18;;;;;;;12.85;7.13;;;;;;;;;;5096881;28;20040;-79
2022/10/31 14:07:03;;;;;;;12.02;6.80;;;;;;;;;;5082115;28;20044;-80
2022/10/31 14:09:31;;;;;;;13.38;7.43;;;;;;;;;;5081959;28;20038;-79
2022/10/31 14:12:00;;;;;;;12.27;6.70;;;;;;;;;;5103849;27;20491;-79
2022/10/31 14:14:29;;;;;;;15.60;7.03;;;;;;;;;;5108892;27;20104;-79
2022/10/31 14:16:56;;;;;;;12.10;6.50;;;;;;;;;;5108680;27;20079;-79
2022/10/31 14:19:23;;;;;;;10.23;6.20;;;;;;;;;;5096575;28;20050;-79
2022/10/31 14:21:50;;;;;;;11.32;6.20;;;;;;;;;;5104690;27;20032;-79
2022/10/31 14:24:31;;;;;;;10.68;6.43;;;;;;;;;;5109000;27;20031;-70
2022/10/31 14:26:58;;;;;;;13.38;6.82;;;;;;;;;;5092783;28;20042;-71
2022/10/31 14:29:26;;;;;;;13.18;6.70;;;;;;;;;;5111364;27;20039;-71
2022/10/31 14:31:53;;;;;;;13.05;7.32;;;;;;;;;;5110399;27;20043;-70
2022/10/31 14:34:37;;;;;;;19.48;8.20;;;;;;;;;;5089633;27;20039;-71
2022/10/31 14:37:11;;;;;;;16.00;8.82;;;;;;;;;;5097229;28;20035;-71
2022/10/31 14:39:42;;;;;;;16.02;8.25;;;;;;;;;;5095455;28;20074;-70
2022/10/31 14:42:23;;;;;;;10.95;6.53;;;;;;;;;;5103757;27;20164;-71